KRWF/RWF METAR and TAF weather

Enter ICAO airport designator
Station Type Date Time Source
KRWF METAR 2018/12/18 19:53 UTC NOAA

KRWF 181953Z AUTO 23007KT 10SM CLR 05/00 A2983 RMK AO2 SLP113 T00500000


Station Type Date Time Source
KRWF Decoded METAR 2018/12/18 19:53 UTC NOAA

REDWOOD FALLS MUNICIPAL, MN, United States (KRWF) 44-33N 95-05W 311M
Dec 18, 2018 - 02:53 PM EST / 2018.12.18 1953 UTC
Wind: from the SW (230 degrees) at 8 MPH (7 KT):0
Visibility: 10 mile(s):0
Sky conditions: clear
Temperature: 41.0 F (5.0 C)
Dew Point: 32.0 F (0.0 C)
Relative Humidity: 70%
Pressure (altimeter): 29.83 in. Hg (1010 hPa)
ob: KRWF 181953Z AUTO 23007KT 10SM CLR 05/00 A2983 RMK AO2 SLP113 T00500000
cycle: 20

Station Type Date Time Source
KRWF TAF 2018/12/18 18:27 UTC NOAA

TAF KRWF 181723Z 1818/1918 22008KT P6SM BKN200
FM190900 17006KT P6SM BKN100
FM191400 20007KT P6SM SCT050 BKN100


Example: see airport list